createdAt,value
2019-06-08T00:01:03.129Z,0.83
2019-06-08T00:03:31.038Z,0.70
2019-06-08T00:05:58.970Z,0.70
2019-06-08T00:08:26.821Z,0.73
2019-06-08T00:10:54.796Z,0.80
2019-06-08T00:13:23.270Z,0.67
2019-06-08T00:15:51.322Z,0.77
2019-06-08T00:18:19.388Z,0.87
2019-06-08T00:20:47.491Z,0.80
2019-06-08T00:23:15.753Z,0.90
2019-06-08T00:25:43.669Z,0.90
2019-06-08T00:28:11.513Z,0.70
2019-06-08T00:30:39.380Z,0.80
2019-06-08T00:33:07.233Z,0.73
2019-06-08T00:35:35.137Z,0.73
2019-06-08T00:38:03.024Z,0.70
2019-06-08T00:40:30.930Z,0.63
2019-06-08T00:42:58.963Z,0.50
2019-06-08T00:46:03.184Z,0.60
2019-06-08T00:48:31.055Z,0.57
2019-06-08T00:50:58.921Z,1.10
2019-06-08T00:53:26.799Z,0.87
2019-06-08T00:55:54.653Z,0.70
2019-06-08T00:58:22.558Z,0.50
2019-06-08T01:00:50.427Z,0.83
2019-06-08T01:03:19.603Z,0.67
2019-06-08T01:05:47.617Z,0.50
2019-06-08T01:08:15.503Z,0.60
2019-06-08T01:10:43.442Z,0.83
2019-06-08T01:13:11.291Z,0.63
2019-06-08T01:15:39.162Z,0.63
2019-06-08T01:18:07.080Z,0.70
2019-06-08T01:20:35.008Z,0.80
2019-06-08T01:23:02.906Z,0.83
2019-06-08T01:25:30.730Z,0.83
2019-06-08T01:27:58.610Z,1.10
2019-06-08T01:30:26.779Z,0.80
2019-06-08T01:32:54.647Z,0.80
2019-06-08T01:35:22.932Z,1.20
2019-06-08T01:37:50.971Z,0.70
2019-06-08T01:40:18.920Z,0.60
2019-06-08T01:42:46.785Z,0.77
2019-06-08T01:45:30.189Z,1.10
2019-06-08T01:47:58.799Z,0.57
2019-06-08T01:50:26.900Z,0.90
2019-06-08T01:52:54.757Z,0.77
2019-06-08T01:55:23.035Z,0.83
2019-06-08T01:57:50.944Z,0.70
2019-06-08T02:00:29.739Z,0.90
2019-06-08T02:02:48.439Z,0.70
2019-06-08T02:05:16.402Z,0.70
2019-06-08T02:07:44.256Z,0.80
2019-06-08T02:10:12.327Z,0.77
2019-06-08T02:12:40.200Z,0.80
2019-06-08T02:15:08.354Z,0.90
2019-06-08T02:17:36.320Z,1.30
2019-06-08T02:20:05.424Z,0.90
2019-06-08T02:22:33.336Z,0.80
2019-06-08T02:25:01.189Z,0.90
2019-06-08T02:27:29.284Z,1.03
2019-06-08T02:29:57.188Z,0.70
2019-06-08T02:32:25.069Z,1.10
2019-06-08T02:34:52.957Z,0.70
2019-06-08T02:37:20.838Z,0.97
2019-06-08T02:39:48.761Z,1.00
2019-06-08T02:42:16.743Z,1.00
2019-06-08T02:44:44.587Z,1.10
2019-06-08T02:47:16.186Z,0.90
2019-06-08T02:49:42.086Z,1.07
2019-06-08T02:52:10.714Z,0.80
2019-06-08T02:54:39.793Z,1.20
2019-06-08T02:57:08.390Z,1.20
2019-06-08T02:59:38.007Z,1.20
2019-06-08T03:02:07.543Z,1.17
2019-06-08T03:04:38.775Z,1.30
2019-06-08T03:07:06.962Z,1.20
2019-06-08T03:09:36.617Z,0.93
2019-06-08T03:12:04.633Z,1.40
2019-06-08T03:14:33.370Z,1.50
2019-06-08T03:17:01.863Z,1.17
2019-06-08T03:19:31.232Z,1.13
2019-06-08T03:21:59.331Z,1.40
2019-06-08T03:24:27.190Z,0.80
2019-06-08T03:26:55.059Z,1.27
2019-06-08T03:29:22.987Z,1.43
2019-06-08T03:31:56.620Z,1.20
2019-06-08T03:34:20.474Z,1.10
2019-06-08T03:36:55.808Z,1.40
2019-06-08T03:39:18.022Z,0.73
2019-06-08T03:41:45.938Z,1.33
2019-06-08T03:44:13.875Z,1.10
2019-06-08T03:46:43.471Z,1.67
2019-06-08T03:49:11.296Z,1.00
2019-06-08T03:51:43.546Z,1.30
2019-06-08T03:54:08.753Z,1.10
2019-06-08T03:56:38.010Z,1.10
2019-06-08T03:59:05.975Z,1.00
2019-06-08T04:01:33.901Z,1.30
2019-06-08T04:04:01.785Z,1.10
2019-06-08T04:06:29.646Z,1.50
2019-06-08T04:08:57.528Z,1.30
2019-06-08T04:11:25.408Z,0.80
2019-06-08T04:13:53.269Z,1.43
2019-06-08T04:16:22.073Z,0.90
2019-06-08T04:18:50.383Z,1.03
2019-06-08T04:21:18.325Z,1.00
2019-06-08T04:23:47.120Z,1.00
2019-06-08T04:26:15.303Z,1.03
2019-06-08T04:28:44.721Z,1.10
2019-06-08T04:31:12.786Z,1.20
2019-06-08T04:33:42.035Z,1.33
2019-06-08T04:36:10.026Z,1.13
2019-06-08T04:38:39.031Z,1.00
2019-06-08T04:41:07.137Z,1.40
2019-06-08T04:43:35.061Z,1.27
2019-06-08T04:46:03.000Z,1.33
2019-06-08T04:48:30.859Z,1.50
2019-06-08T04:50:58.732Z,1.30
2019-06-08T04:53:26.589Z,1.20
2019-06-08T04:55:54.535Z,1.43
2019-06-08T04:58:22.377Z,1.70
2019-06-08T05:00:50.971Z,1.43
2019-06-08T05:03:19.057Z,1.57
2019-06-08T05:05:47.574Z,1.50
2019-06-08T05:08:16.165Z,1.40
2019-06-08T05:10:45.289Z,1.53
2019-06-08T05:13:13.334Z,1.67
2019-06-08T05:15:41.445Z,1.37
2019-06-08T05:18:09.577Z,1.67
2019-06-08T05:20:39.414Z,1.63
2019-06-08T05:23:07.777Z,1.37
2019-06-08T05:25:35.742Z,2.00
2019-06-08T05:28:04.076Z,1.40
2019-06-08T05:30:32.132Z,1.37
2019-06-08T05:33:00.038Z,2.27
2019-06-08T05:35:27.941Z,1.70
2019-06-08T05:37:55.807Z,1.50
2019-06-08T05:40:23.695Z,1.20
2019-06-08T05:42:51.608Z,1.60
2019-06-08T05:45:19.518Z,1.63
2019-06-08T05:47:47.919Z,1.70
2019-06-08T05:50:16.130Z,1.80
2019-06-08T05:52:44.245Z,1.60
2019-06-08T05:55:12.282Z,1.60
2019-06-08T05:57:40.164Z,1.47
2019-06-08T06:00:09.294Z,2.00
2019-06-08T06:02:37.360Z,1.70
2019-06-08T06:05:05.802Z,1.47
2019-06-08T06:07:33.686Z,1.60
2019-06-08T06:10:01.631Z,1.17
2019-06-08T06:12:29.561Z,1.30
2019-06-08T06:14:57.467Z,1.30
2019-06-08T06:17:25.341Z,1.43
2019-06-08T06:19:53.224Z,1.33
2019-06-08T06:22:21.106Z,1.57
2019-06-08T06:24:49.731Z,2.23
2019-06-08T06:27:17.606Z,1.30
2019-06-08T06:29:45.590Z,1.50
2019-06-08T06:32:13.512Z,0.97
2019-06-08T06:34:41.988Z,1.30
2019-06-08T06:37:10.075Z,1.37
2019-06-08T06:39:37.969Z,1.33
2019-06-08T06:42:05.837Z,1.70
2019-06-08T06:44:33.758Z,1.57
2019-06-08T06:47:01.624Z,1.30
2019-06-08T06:49:29.478Z,1.57
2019-06-08T06:51:57.376Z,2.10
2019-06-08T06:54:25.251Z,1.70
2019-06-08T06:56:54.058Z,1.50
2019-06-08T06:59:22.088Z,1.37
2019-06-08T07:01:54.336Z,1.50
2019-06-08T07:04:19.705Z,1.27
2019-06-08T07:06:48.121Z,1.67
2019-06-08T07:09:16.027Z,1.60
2019-06-08T07:11:44.485Z,1.60
2019-06-08T07:14:12.511Z,1.67
2019-06-08T07:16:40.400Z,1.60
2019-06-08T07:19:08.311Z,1.50
2019-06-08T07:21:41.605Z,1.30
2019-06-08T07:24:05.717Z,1.40
2019-06-08T07:26:33.585Z,1.50
2019-06-08T07:29:01.764Z,1.50
2019-06-08T07:31:29.940Z,1.90
2019-06-08T07:33:59.688Z,1.40
2019-06-08T07:36:27.662Z,1.60
2019-06-08T07:38:55.573Z,1.47
2019-06-08T07:41:23.495Z,1.93
2019-06-08T07:43:52.331Z,1.53
2019-06-08T07:46:20.349Z,1.30
2019-06-08T07:48:48.223Z,1.90
2019-06-08T07:51:16.123Z,1.57
2019-06-08T07:53:43.957Z,1.73
2019-06-08T07:56:11.831Z,1.67
2019-06-08T07:58:39.818Z,1.33
2019-06-08T08:01:08.388Z,1.60
2019-06-08T08:03:36.401Z,1.20
2019-06-08T08:06:04.258Z,1.80
2019-06-08T08:08:32.101Z,1.60
2019-06-08T08:11:00.292Z,2.40
2019-06-08T08:13:28.157Z,1.27
2019-06-08T08:15:58.720Z,1.53
2019-06-08T08:18:25.707Z,1.47
2019-06-08T08:20:53.579Z,1.70
2019-06-08T08:23:21.587Z,1.97
2019-06-08T08:25:50.355Z,1.20
2019-06-08T08:28:19.067Z,1.30
2019-06-08T08:30:49.370Z,1.67
2019-06-08T08:33:18.433Z,1.67
2019-06-08T08:35:48.080Z,1.30
2019-06-08T08:38:17.604Z,1.43
2019-06-08T08:40:45.345Z,1.57
2019-06-08T08:43:13.224Z,1.47
2019-06-08T08:45:41.133Z,1.50
2019-06-08T08:48:23.768Z,1.40
2019-06-08T08:50:38.797Z,1.60
2019-06-08T08:53:08.329Z,1.60
2019-06-08T08:55:37.965Z,1.73
2019-06-08T08:58:08.211Z,1.57
2019-06-08T09:00:38.199Z,1.23
2019-06-08T09:03:21.998Z,1.93
2019-06-08T09:05:34.895Z,1.73
2019-06-08T09:08:03.992Z,1.63
2019-06-08T09:10:32.212Z,1.50
2019-06-08T09:13:02.949Z,1.80
2019-06-08T09:15:31.515Z,1.30
2019-06-08T09:18:02.109Z,1.40
2019-06-08T09:20:28.932Z,1.50
2019-06-08T09:23:06.695Z,1.10
2019-06-08T09:25:28.023Z,1.43
2019-06-08T09:27:57.132Z,1.60
2019-06-08T09:30:27.490Z,1.40
2019-06-08T09:32:57.157Z,1.10
2019-06-08T09:35:24.855Z,1.20
2019-06-08T09:37:54.516Z,1.70
2019-06-08T09:40:22.795Z,1.20
2019-06-08T09:42:51.507Z,1.37
2019-06-08T09:45:20.362Z,1.20
2019-06-08T09:47:48.312Z,1.17
2019-06-08T09:50:18.444Z,2.03
2019-06-08T09:52:47.910Z,1.10
2019-06-08T09:55:17.928Z,1.50
2019-06-08T09:57:45.244Z,1.40
2019-06-08T10:00:18.178Z,1.10
2019-06-08T10:02:42.844Z,1.10
2019-06-08T10:05:10.917Z,1.40
2019-06-08T10:07:39.114Z,1.63
2019-06-08T10:10:09.737Z,1.20
2019-06-08T10:12:37.781Z,1.20
2019-06-08T10:15:08.162Z,1.30
2019-06-08T10:17:37.767Z,1.40
2019-06-08T10:20:09.662Z,1.07
2019-06-08T10:22:36.077Z,1.20
2019-06-08T10:25:07.705Z,1.40
2019-06-08T10:27:33.833Z,1.30
2019-06-08T10:30:03.347Z,1.47
2019-06-08T10:32:31.298Z,1.40
2019-06-08T10:35:02.224Z,1.70
2019-06-08T10:37:28.834Z,1.17
2019-06-08T10:40:00.606Z,1.40
2019-06-08T10:42:26.278Z,1.57
2019-06-08T10:44:54.156Z,1.47
2019-06-08T10:47:21.996Z,1.47
2019-06-08T10:49:49.870Z,1.50
2019-06-08T10:52:20.062Z,1.60
2019-06-08T10:54:47.325Z,1.50
2019-06-08T10:57:15.308Z,1.50
2019-06-08T10:59:43.156Z,1.53
2019-06-08T11:02:13.950Z,1.30
2019-06-08T11:04:43.063Z,1.60
2019-06-08T11:07:15.448Z,1.70
2019-06-08T11:09:39.901Z,1.30
2019-06-08T11:12:14.376Z,1.20
2019-06-08T11:14:38.260Z,1.97
2019-06-08T11:17:09.587Z,1.30
2019-06-08T11:19:37.653Z,1.37
2019-06-08T11:22:08.936Z,1.10
2019-06-08T11:24:35.411Z,1.00
2019-06-08T11:27:03.586Z,1.40
2019-06-08T11:29:31.582Z,1.00
2019-06-08T11:31:59.941Z,1.43
2019-06-08T11:34:28.710Z,1.50
2019-06-08T11:36:59.069Z,1.63
2019-06-08T11:39:28.586Z,1.30
2019-06-08T11:41:58.652Z,1.53
2019-06-08T11:44:27.427Z,1.50
2019-06-08T11:46:57.384Z,1.10
2019-06-08T11:49:24.717Z,1.60
2019-06-08T11:51:52.581Z,1.00
2019-06-08T11:54:32.817Z,1.13
2019-06-08T11:56:51.272Z,1.40
2019-06-08T11:59:19.563Z,1.27
2019-06-08T12:01:50.266Z,1.30
2019-06-08T12:04:18.411Z,1.20
2019-06-08T12:06:48.412Z,1.33
2019-06-08T12:09:18.495Z,1.40
2019-06-08T12:11:47.925Z,1.50
2019-06-08T12:14:17.564Z,1.20
2019-06-08T12:16:44.838Z,1.27
2019-06-08T12:19:15.775Z,1.50
2019-06-08T12:21:42.304Z,1.43
2019-06-08T12:24:10.441Z,1.00
2019-06-08T12:26:38.396Z,1.30
2019-06-08T12:29:09.368Z,1.40
2019-06-08T12:31:37.813Z,1.40
2019-06-08T12:34:05.532Z,1.30
2019-06-08T12:36:33.466Z,1.47
2019-06-08T12:39:01.387Z,1.33
2019-06-08T12:41:31.497Z,1.10
2019-06-08T12:43:58.880Z,1.30
2019-06-08T12:46:27.944Z,1.50
2019-06-08T12:48:58.067Z,1.47
2019-06-08T12:51:27.918Z,1.50
2019-06-08T12:53:55.283Z,1.50
2019-06-08T12:56:24.206Z,1.00
2019-06-08T12:58:52.293Z,1.30
2019-06-08T13:01:20.164Z,1.23
2019-06-08T13:03:48.540Z,1.23
2019-06-08T13:06:18.330Z,0.97
2019-06-08T13:08:47.808Z,1.13
2019-06-08T13:11:18.725Z,1.17
2019-06-08T13:13:45.474Z,1.03
2019-06-08T13:16:14.542Z,1.10
2019-06-08T13:18:42.627Z,1.40
2019-06-08T13:21:22.147Z,1.40
2019-06-08T13:23:41.283Z,1.80
2019-06-08T13:26:09.478Z,1.93
2019-06-08T13:28:38.529Z,1.33
2019-06-08T13:31:07.830Z,1.50
2019-06-08T13:33:38.237Z,1.20
2019-06-08T13:36:05.687Z,1.17
2019-06-08T13:38:33.556Z,1.00
2019-06-08T13:41:01.464Z,1.10
2019-06-08T13:43:29.368Z,1.30
2019-06-08T13:45:58.379Z,1.10
2019-06-08T13:48:26.417Z,1.30
2019-06-08T13:50:54.297Z,1.40
2019-06-08T13:53:27.426Z,1.43
2019-06-08T13:55:56.472Z,1.37
2019-06-08T13:58:28.848Z,1.40
2019-06-08T14:00:50.918Z,1.80
2019-06-08T14:03:21.294Z,1.37
2019-06-08T14:05:48.422Z,1.33
2019-06-08T14:08:18.744Z,1.90
2019-06-08T14:10:48.130Z,1.97
2019-06-08T14:13:15.522Z,1.70
2019-06-08T14:15:43.382Z,2.07
2019-06-08T14:18:11.246Z,1.50
2019-06-08T14:20:39.182Z,1.83
2019-06-08T14:23:09.113Z,1.60
2019-06-08T14:25:47.937Z,1.30
2019-06-08T14:28:06.284Z,1.67
2019-06-08T14:30:34.173Z,1.33
2019-06-08T14:33:02.016Z,1.40
2019-06-08T14:35:29.983Z,1.30
2019-06-08T14:37:57.984Z,1.63
2019-06-08T14:40:31.051Z,1.30
2019-06-08T14:42:57.949Z,1.23
2019-06-08T14:45:27.788Z,1.70
2019-06-08T14:47:54.759Z,1.40
2019-06-08T14:50:22.921Z,1.17
2019-06-08T14:52:51.008Z,1.13
2019-06-08T14:55:20.743Z,1.73
2019-06-08T14:57:48.538Z,1.33
2019-06-08T15:00:19.438Z,1.63
2019-06-08T15:02:49.679Z,1.20
2019-06-08T15:05:18.596Z,1.27
2019-06-08T15:07:47.790Z,1.47
2019-06-08T15:10:18.181Z,1.50
2019-06-08T15:12:45.463Z,1.20
2019-06-08T15:15:13.635Z,1.57
2019-06-08T15:17:41.602Z,1.60
2019-06-08T15:20:09.596Z,1.10
2019-06-08T15:22:38.953Z,1.30
2019-06-08T15:25:08.202Z,1.30
2019-06-08T15:27:38.976Z,1.20
2019-06-08T15:30:07.049Z,1.20
2019-06-08T15:32:35.715Z,1.23
2019-06-08T15:35:04.940Z,1.20
2019-06-08T15:37:32.858Z,1.10
2019-06-08T15:40:00.713Z,1.50
2019-06-08T15:42:29.310Z,1.33
2019-06-08T15:44:59.615Z,1.10
2019-06-08T15:47:28.261Z,1.30
2019-06-08T15:49:58.394Z,1.10
2019-06-08T15:52:27.153Z,1.23
2019-06-08T15:54:58.195Z,1.47
2019-06-08T15:57:24.998Z,1.60
2019-06-08T15:59:52.851Z,0.93
2019-06-08T16:02:20.711Z,1.10
2019-06-08T16:04:48.581Z,1.00
2019-06-08T16:07:16.959Z,1.67
2019-06-08T16:09:45.020Z,1.40
2019-06-08T16:12:12.886Z,1.87
2019-06-08T16:14:41.701Z,1.50
2019-06-08T16:17:09.646Z,1.13
2019-06-08T16:19:37.552Z,0.80
2019-06-08T16:22:05.505Z,1.20
2019-06-08T16:24:33.991Z,1.40
2019-06-08T16:27:02.054Z,1.20
2019-06-08T16:29:30.868Z,1.40
2019-06-08T16:31:58.854Z,1.30
2019-06-08T16:34:27.285Z,1.70
2019-06-08T16:36:55.283Z,1.70
2019-06-08T16:39:23.491Z,1.13
2019-06-08T16:41:51.387Z,1.23
2019-06-08T16:44:19.374Z,1.47
2019-06-08T16:46:47.333Z,1.30
2019-06-08T16:49:15.204Z,1.47
2019-06-08T16:51:43.127Z,1.73
2019-06-08T16:54:11.071Z,1.77
2019-06-08T16:56:40.214Z,1.93
2019-06-08T16:59:08.386Z,1.30
2019-06-08T17:01:36.833Z,1.20
2019-06-08T17:04:04.817Z,1.00
2019-06-08T17:06:33.542Z,1.60
2019-06-08T17:09:01.567Z,1.20
2019-06-08T17:11:29.623Z,1.40
2019-06-08T17:13:57.525Z,1.20
2019-06-08T17:16:25.466Z,1.27
2019-06-08T17:18:55.802Z,1.60
2019-06-08T17:21:23.042Z,1.23
2019-06-08T17:23:50.956Z,1.03
2019-06-08T17:26:18.900Z,1.40
2019-06-08T17:28:46.804Z,1.63
2019-06-08T17:31:14.801Z,1.70
2019-06-08T17:33:42.730Z,1.87
2019-06-08T17:36:10.579Z,1.40
2019-06-08T17:38:39.494Z,1.23
2019-06-08T17:41:07.542Z,1.20
2019-06-08T17:43:36.165Z,2.00
2019-06-08T17:46:04.147Z,1.37
2019-06-08T17:48:32.469Z,1.43
2019-06-08T17:51:00.443Z,1.67
2019-06-08T17:53:28.311Z,2.30
2019-06-08T17:55:56.235Z,4.00
2019-06-08T17:58:24.053Z,1.50
2019-06-08T18:00:51.922Z,1.47
2019-06-08T18:03:19.789Z,1.30
2019-06-08T18:05:48.601Z,1.20
2019-06-08T18:08:17.510Z,1.10
2019-06-08T18:10:45.587Z,2.33
2019-06-08T18:13:13.441Z,1.33
2019-06-08T18:15:43.094Z,0.90
2019-06-08T18:18:11.368Z,1.67
2019-06-08T18:20:41.956Z,1.20
2019-06-08T18:23:09.026Z,1.03
2019-06-08T18:25:40.234Z,1.03
2019-06-08T18:28:13.180Z,1.43
2019-06-08T18:30:40.271Z,1.30
2019-06-08T18:33:07.359Z,1.10
2019-06-08T18:35:38.002Z,0.90
2019-06-08T18:38:07.132Z,1.40
2019-06-08T18:40:34.945Z,1.70
2019-06-08T18:43:02.925Z,1.40
2019-06-08T18:45:30.856Z,1.87
2019-06-08T18:47:58.780Z,1.50
2019-06-08T18:50:28.531Z,1.47
2019-06-08T18:52:58.005Z,1.50
2019-06-08T18:55:27.740Z,1.67
2019-06-08T18:57:58.654Z,1.57
2019-06-08T19:00:39.764Z,1.30
2019-06-08T19:03:07.131Z,1.70
2019-06-08T19:05:38.055Z,1.50
2019-06-08T19:08:07.030Z,1.37
2019-06-08T19:10:37.389Z,1.30
2019-06-08T19:13:04.974Z,1.20
2019-06-08T19:15:33.704Z,1.33
2019-06-08T19:18:01.645Z,1.57
2019-06-08T19:20:29.615Z,1.40
2019-06-08T19:22:57.936Z,1.70
2019-06-08T19:25:27.493Z,1.70
2019-06-08T19:27:57.792Z,1.60
2019-06-08T19:30:25.305Z,2.03
2019-06-08T19:32:53.173Z,1.40
2019-06-08T19:35:21.052Z,1.60
2019-06-08T19:37:53.622Z,1.83
2019-06-08T19:40:18.763Z,2.00
2019-06-08T19:42:55.419Z,1.70
2019-06-08T19:45:18.183Z,1.20
2019-06-08T19:47:46.678Z,1.60
2019-06-08T19:50:17.108Z,1.53
2019-06-08T19:52:46.349Z,2.57
2019-06-08T19:55:13.895Z,1.43
2019-06-08T19:57:41.746Z,1.70
2019-06-08T20:00:09.824Z,1.60
2019-06-08T20:02:37.794Z,2.10
2019-06-08T20:05:07.691Z,1.60
2019-06-08T20:07:37.811Z,1.57
2019-06-08T20:10:07.689Z,1.63
2019-06-08T20:12:37.199Z,1.80
2019-06-08T20:15:05.517Z,1.97
2019-06-08T20:17:33.506Z,2.07
2019-06-08T20:20:01.425Z,2.27
2019-06-08T20:22:29.401Z,2.20
2019-06-08T20:24:57.309Z,1.67
2019-06-08T20:27:27.551Z,1.83
2019-06-08T20:29:54.768Z,2.27
2019-06-08T20:32:22.643Z,1.93
2019-06-08T20:34:51.142Z,1.70
2019-06-08T20:37:20.293Z,2.53
2019-06-08T20:40:02.998Z,4.57
2019-06-08T20:42:17.927Z,3.17
2019-06-08T20:44:46.695Z,3.30
2019-06-08T20:47:17.867Z,3.83
2019-06-08T20:49:46.908Z,3.60
2019-06-08T20:52:14.719Z,3.10
2019-06-08T20:54:42.809Z,3.20
2019-06-08T20:57:10.994Z,3.60
2019-06-08T20:59:40.047Z,3.40
2019-06-08T21:02:08.520Z,3.67
2019-06-08T21:04:38.383Z,4.60
2019-06-08T21:07:08.179Z,3.93
2019-06-08T21:09:37.072Z,3.60
2019-06-08T21:12:05.133Z,3.70
2019-06-08T21:14:33.006Z,3.40
2019-06-08T21:17:00.888Z,3.43
2019-06-08T21:19:28.776Z,3.90
2019-06-08T21:21:58.934Z,3.40
2019-06-08T21:24:28.139Z,4.20
2019-06-08T21:27:00.082Z,4.43
2019-06-08T21:29:28.840Z,4.87
2019-06-08T21:31:56.334Z,4.90
2019-06-08T21:34:24.648Z,4.93
2019-06-08T21:36:54.080Z,4.60
2019-06-08T21:39:22.204Z,4.23
2019-06-08T21:41:53.106Z,3.93
2019-06-08T21:44:19.831Z,5.37
2019-06-08T21:46:50.137Z,4.27
2019-06-08T21:49:18.240Z,4.20
2019-06-08T21:51:48.530Z,4.67
2019-06-08T21:54:17.605Z,4.20
2019-06-08T21:56:47.607Z,4.33
2019-06-08T21:59:15.301Z,4.87
2019-06-08T22:01:43.482Z,4.60
2019-06-08T22:04:11.375Z,4.27
2019-06-08T22:06:39.282Z,4.40
2019-06-08T22:09:07.986Z,4.73
2019-06-08T22:11:37.579Z,5.03
2019-06-08T22:14:07.349Z,5.17
2019-06-08T22:16:38.063Z,5.80
2019-06-08T22:19:07.482Z,6.73
2019-06-08T22:21:37.554Z,5.63
2019-06-08T22:24:05.012Z,5.50
2019-06-08T22:26:34.033Z,5.30
2019-06-08T22:29:02.127Z,4.77
2019-06-08T22:31:29.983Z,5.23
2019-06-08T22:34:00.337Z,4.50
2019-06-08T22:36:27.658Z,4.80
2019-06-08T22:38:58.794Z,4.17
2019-06-08T22:41:25.292Z,4.00
2019-06-08T22:43:54.002Z,3.60
2019-06-08T22:46:22.832Z,3.73
2019-06-08T22:48:50.750Z,3.70
2019-06-08T22:51:18.898Z,3.20
2019-06-08T22:53:47.901Z,2.70
2019-06-08T22:56:18.118Z,2.97
2019-06-08T22:58:47.776Z,3.00
2019-06-08T23:01:15.112Z,2.93
2019-06-08T23:03:43.026Z,2.30
2019-06-08T23:06:10.880Z,2.67
2019-06-08T23:08:38.782Z,2.80
2019-06-08T23:11:08.385Z,2.47
2019-06-08T23:13:37.700Z,3.63
2019-06-08T23:16:08.544Z,2.87
2019-06-08T23:18:37.332Z,3.43
2019-06-08T23:21:06.551Z,3.00
2019-06-08T23:23:35.388Z,3.13
2019-06-08T23:26:05.208Z,3.10
2019-06-08T23:28:32.848Z,2.80
2019-06-08T23:31:10.686Z,2.93
2019-06-08T23:33:30.497Z,3.40
2019-06-08T23:36:34.229Z,2.97
2019-06-08T23:38:28.046Z,3.50
2019-06-08T23:40:58.098Z,2.60
2019-06-08T23:43:28.014Z,4.10
2019-06-08T23:45:55.179Z,3.20
2019-06-08T23:48:23.093Z,3.43
2019-06-08T23:50:50.973Z,3.50
2019-06-08T23:53:18.856Z,3.67
2019-06-08T23:55:47.900Z,3.00
2019-06-08T23:58:17.470Z,2.70
